Latest Weather Observations for Point Wilson

IDV60801

Issued at 9:05 pm EST Tuesday 2 September 2014 (issued every 30 minutes, with the page automatically refreshed every 10 minutes)

About weather observations | Map of weather stations | Latest weather observations for VIC | Other Formats
Station Details ID: 087166 Name: POINT WILSON Lat: -38.10 Lon: 144.54 Height: 18.0 m
Data from the previous 72 hours. | See also: Recent months at Point Wilson
Date/Time
EST
Temp
°C
App
Temp
°C
Dew
Point
Rel
Hum
%
Delta-T
°C
Wind Press
QNH
hPa
Press
MSL
hPa
Rain
since 9 am
mm
Dir
 
Spd
km/h
Gust
km/h
Spd
kts
Gust
kts
02/09:00pm - - - - - SW 19 22 10 12 - - -
02/08:30pm - - - - - SSW 20 24 11 13 - - -
02/08:00pm - - - - - SSW 24 28 13 15 - - -
02/07:30pm - - - - - SSW 24 28 13 15 - - -
02/07:00pm - - - - - SSW 24 30 13 16 - - -
02/06:30pm - - - - - SSW 22 28 12 15 - - -
02/06:00pm - - - - - S 22 28 12 15 - - -
02/05:30pm - - - - - S 28 39 15 21 - - -
02/05:00pm - - - - - S 26 33 14 18 - - -
02/04:30pm - - - - - S 33 41 18 22 - - -
02/04:00pm - - - - - S 32 35 17 19 - - -
02/03:30pm - - - - - SSW 33 46 18 25 - - -
02/03:03pm - - - - - SSW 35 54 19 29 - - -
02/03:00pm - - - - - S 32 39 17 21 - - -
02/02:30pm - - - - - S 33 39 18 21 - - -
02/02:00pm - - - - - SSW 37 46 20 25 - - -
02/01:30pm - - - - - SSW 39 50 21 27 - - -
02/01:00pm - - - - - SSW 33 43 18 23 - - -
02/12:30pm - - - - - SSW 39 48 21 26 - - -
02/12:00pm - - - - - SSW 41 46 22 25 - - -
02/11:30am - - - - - S 41 50 22 27 - - -
02/11:00am - - - - - S 41 52 22 28 - - -
02/10:30am - - - - - SSW 37 46 20 25 - - -
02/10:00am - - - - - SSW 32 41 17 22 - - -
02/09:30am - - - - - SW 28 35 15 19 - - -
02/09:00am - - - - - WSW 22 28 12 15 - - -
02/08:30am - - - - - WSW 24 30 13 16 - - -
02/08:00am - - - - - WSW 24 28 13 15 - - -
02/07:30am - - - - - WSW 26 32 14 17 - - -
02/07:00am - - - - - WSW 22 28 12 15 - - -
02/06:30am - - - - - WSW 33 43 18 23 - - -
02/06:00am - - - - - SW 22 32 12 17 - - -
02/05:30am - - - - - W 24 28 13 15 - - -
02/05:00am - - - - - W 28 32 15 17 - - -
02/04:30am - - - - - SW 22 26 12 14 - - -
02/04:00am - - - - - SW 30 35 16 19 - - -
02/03:30am - - - - - W 28 32 15 17 - - -
02/03:00am - - - - - WSW 19 24 10 13 - - -
02/02:30am - - - - - WSW 30 33 16 18 - - -
02/02:00am - - - - - W 28 32 15 17 - - -
02/01:30am - - - - - W 20 24 11 13 - - -
02/01:00am - - - - - SW 20 28 11 15 - - -
02/12:30am - - - - - WSW 24 30 13 16 - - -
02/12:00am - - - - - W 28 32 15 17 - - -
 
Date/Time
EST
Temp
°C
App
Temp
°C
Dew
Point
Rel
Hum
%
Delta-T
°C
Wind Press
QNH
hPa
Press
MSL
hPa
Rain
since 9 am
mm
Dir
 
Spd
km/h
Gust
km/h
Spd
kts
Gust
kts
01/11:30pm - - - - - W 33 37 18 20 - - -
01/11:00pm - - - - - W 28 32 15 17 - - -
01/10:30pm - - - - - W 24 28 13 15 - - -
01/10:00pm - - - - - W 22 30 12 16 - - -
01/09:30pm - - - - - WNW 19 22 10 12 - - -
01/09:00pm - - - - - W 19 22 10 12 - - -
01/08:30pm - - - - - W 17 20 9 11 - - -
01/08:00pm - - - - - W 19 22 10 12 - - -
01/07:30pm - - - - - W 19 22 10 12 - - -
01/07:00pm - - - - - WNW 19 24 10 13 - - -
01/06:30pm - - - - - WSW 22 28 12 15 - - -
01/06:00pm - - - - - SW 22 26 12 14 - - -
01/05:30pm - - - - - SW 32 39 17 21 - - -
01/05:00pm - - - - - SSW 20 24 11 13 - - -
01/04:30pm - - - - - SSW 15 19 8 10 - - -
01/04:00pm - - - - - SSW 20 24 11 13 - - -
01/03:30pm - - - - - W 17 20 9 11 - - -
01/03:00pm - - - - - W 20 24 11 13 - - -
01/02:30pm - - - - - W 22 28 12 15 - - -
01/02:00pm - - - - - W 20 26 11 14 - - -
01/01:30pm - - - - - W 30 35 16 19 - - -
01/01:09pm - - - - - W 28 48 15 26 - - -
01/01:00pm - - - - - WNW 22 28 12 15 - - -
01/12:30pm - - - - - WNW 15 19 8 10 - - -
01/12:00pm - - - - - WNW 15 17 8 9 - - -
01/11:30am - - - - - NW 13 17 7 9 - - -
01/11:00am - - - - - NW 15 19 8 10 - - -
01/10:30am - - - - - WNW 15 17 8 9 - - -
01/10:00am - - - - - NNW 22 28 12 15 - - -
01/09:30am - - - - - NNW 20 24 11 13 - - -
01/09:00am - - - - - WNW 22 32 12 17 - - -
01/08:30am - - - - - N 13 17 7 9 - - -
01/08:00am - - - - - NNW 22 28 12 15 - - -
01/07:30am - - - - - NNW 22 28 12 15 - - -
01/07:00am - - - - - N 26 32 14 17 - - -
01/06:30am - - - - - N 20 26 11 14 - - -
01/06:00am - - - - - N 24 28 13 15 - - -
01/05:30am - - - - - NNW 24 28 13 15 - - -
01/05:00am - - - - - N 32 44 17 24 - - -
01/04:30am - - - - - N 43 50 23 27 - - -
01/04:00am - - - - - N 41 54 22 29 - - -
01/03:58am - - - - - N 39 52 21 28 - - -
01/03:30am - - - - - N 28 32 15 17 - - -
01/03:00am - - - - - N 35 39 19 21 - - -
01/02:30am - - - - - N 41 44 22 24 - - -
01/02:00am - - - - - N 39 44 21 24 - - -
01/01:30am - - - - - N 39 46 21 25 - - -
01/01:19am - - - - - N 32 46 17 25 - - -
01/01:00am - - - - - NNE 22 24 12 13 - - -
01/12:30am - - - - - NNE 19 20 10 11 - - -
01/12:00am - - - - - NNE 32 37 17 20 - - -
 
Date/Time
EST
Temp
°C
App
Temp
°C
Dew
Point
Rel
Hum
%
Delta-T
°C
Wind Press
QNH
hPa
Press
MSL
hPa
Rain
since 9 am
mm
Dir
 
Spd
km/h
Gust
km/h
Spd
kts
Gust
kts
31/11:30pm - - - - - N 35 43 19 23 - - -
31/11:00pm - - - - - N 39 46 21 25 - - -
31/10:30pm - - - - - N 41 48 22 26 - - -
31/10:00pm - - - - - NNE 43 48 23 26 - - -
31/09:30pm - - - - - NNE 44 54 24 29 - - -
31/09:00pm - - - - - NNE 39 43 21 23 - - -
31/08:30pm - - - - - NNE 33 37 18 20 - - -
31/08:00pm - - - - - NNE 33 37 18 20 - - -
31/07:30pm - - - - - NNE 32 35 17 19 - - -
31/07:00pm - - - - - NNE 32 35 17 19 - - -
31/06:30pm - - - - - NNE 33 37 18 20 - - -
31/06:00pm - - - - - NNE 32 35 17 19 - - -
31/05:30pm - - - - - N 33 37 18 20 - - -
31/05:00pm - - - - - N 33 37 18 20 - - -
31/04:30pm - - - - - N 35 39 19 21 - - -
31/04:00pm - - - - - N 33 41 18 22 - - -
31/03:30pm - - - - - N 39 43 21 23 - - -
31/03:00pm - - - - - N 37 39 20 21 - - -
31/02:30pm - - - - - N 35 41 19 22 - - -
31/02:00pm - - - - - N 33 41 18 22 - - -
31/01:30pm - - - - - NNW 35 41 19 22 - - -
31/01:00pm - - - - - N 39 44 21 24 - - -
31/12:30pm - - - - - N 39 44 21 24 - - -
31/12:00pm - - - - - N 35 41 19 22 - - -
31/11:30am - - - - - N 24 33 13 18 - - -
31/11:00am - - - - - N 28 33 15 18 - - -
31/10:30am - - - - - N 32 37 17 20 - - -
31/10:00am - - - - - ENE 22 24 12 13 - - -
31/09:30am - - - - - ENE 22 24 12 13 - - -
31/09:00am - - - - - ENE 20 24 11 13 - - -
31/08:30am - - - - - NE 19 20 10 11 - - -
31/08:00am - - - - - NE 19 22 10 12 - - -
31/07:30am - - - - - NE 22 26 12 14 - - -
31/07:00am - - - - - NE 20 24 11 13 - - -
31/06:30am - - - - - NNE 19 20 10 11 - - -
31/06:00am - - - - - NNE 19 20 10 11 - - -
31/05:30am - - - - - NNE 20 20 11 11 - - -
31/05:00am - - - - - NE 15 19 8 10 - - -
31/04:30am - - - - - NNE 17 20 9 11 - - -
31/04:00am - - - - - N 11 13 6 7 - - -
31/03:30am - - - - - N 13 13 7 7 - - -
31/03:00am - - - - - NNE 17 19 9 10 - - -
31/02:30am - - - - - NNE 15 19 8 10 - - -
31/02:00am - - - - - NNE 19 20 10 11 - - -
31/01:30am - - - - - NE 17 20 9 11 - - -
31/01:00am - - - - - NNE 2 9 1 5 - - -
31/12:30am - - - - - N 11 13 6 7 - - -
31/12:00am - - - - - N 15 19 8 10 - - -
 
Date/Time
EST
Temp
°C
App
Temp
°C
Dew
Point
Rel
Hum
%
Delta-T
°C
Wind Press
QNH
hPa
Press
MSL
hPa
Rain
since 9 am
mm
Dir
 
Spd
km/h
Gust
km/h
Spd
kts
Gust
kts
30/11:30pm - - - - - NNE 15 19 8 10 - - -
30/11:00pm - - - - - NE 15 17 8 9 - - -
30/10:30pm - - - - - NE 11 13 6 7 - - -
30/10:00pm - - - - - CALM 0 0 0 0 - - -
30/09:30pm - - - - - CALM 0 0 0 0 - - -

Other Formats:

Comma delimited format used in spreadsheet applications
http://www.bom.gov.au/fwo/IDV60801/IDV60801.94847.axf

JavaScript Object Notation format (JSON) in row-major order
http://www.bom.gov.au/fwo/IDV60801/IDV60801.94847.json